sensor_id;sensor_type;location;lat;lon;timestamp;P1;P2;P0
48893;PMS5003;34710;35.798;139.446;2023-05-07T00:01:26;35;24;
48893;PMS5003;34710;35.798;139.446;2023-05-07T00:03:51;30;23;
48893;PMS5003;34710;35.798;139.446;2023-05-07T00:06:17;27;24;
48893;PMS5003;34710;35.798;139.446;2023-05-07T00:08:42;23;23;
48893;PMS5003;34710;35.798;139.446;2023-05-07T00:11:07;38;24;
48893;PMS5003;34710;35.798;139.446;2023-05-07T00:13:33;38;24;
48893;PMS5003;34710;35.798;139.446;2023-05-07T00:15:59;33;26;
48893;PMS5003;34710;35.798;139.446;2023-05-07T00:18:25;31;22;
48893;PMS5003;34710;35.798;139.446;2023-05-07T00:20:50;33;25;
48893;PMS5003;34710;35.798;139.446;2023-05-07T00:23:15;33;24;
48893;PMS5003;34710;35.798;139.446;2023-05-07T00:25:40;28;23;
48893;PMS5003;34710;35.798;139.446;2023-05-07T00:28:06;21;20;
48893;PMS5003;34710;35.798;139.446;2023-05-07T00:30:31;39;28;
48893;PMS5003;34710;35.798;139.446;2023-05-07T00:32:57;37;20;
48893;PMS5003;34710;35.798;139.446;2023-05-07T00:35:23;23;21;
48893;PMS5003;34710;35.798;139.446;2023-05-07T00:37:48;23;21;
48893;PMS5003;34710;35.798;139.446;2023-05-07T00:40:14;27;22;
48893;PMS5003;34710;35.798;139.446;2023-05-07T00:42:39;31;28;
48893;PMS5003;34710;35.798;139.446;2023-05-07T00:45:05;43;26;
48893;PMS5003;34710;35.798;139.446;2023-05-07T00:47:30;35;25;
48893;PMS5003;34710;35.798;139.446;2023-05-07T00:49:55;31;27;
48893;PMS5003;34710;35.798;139.446;2023-05-07T00:52:20;27;26;
48893;PMS5003;34710;35.798;139.446;2023-05-07T00:54:45;39;26;
48893;PMS5003;34710;35.798;139.446;2023-05-07T00:57:11;28;27;
48893;PMS5003;34710;35.798;139.446;2023-05-07T00:59:36;26;24;
48893;PMS5003;34710;35.798;139.446;2023-05-07T01:02:02;28;27;
48893;PMS5003;34710;35.798;139.446;2023-05-07T01:04:27;33;23;
48893;PMS5003;34710;35.798;139.446;2023-05-07T01:06:52;29;24;
48893;PMS5003;34710;35.798;139.446;2023-05-07T01:09:17;24;24;
48893;PMS5003;34710;35.798;139.446;2023-05-07T01:11:43;40;25;
48893;PMS5003;34710;35.798;139.446;2023-05-07T01:14:09;32;27;
48893;PMS5003;34710;35.798;139.446;2023-05-07T01:16:34;27;27;
48893;PMS5003;34710;35.798;139.446;2023-05-07T01:18:59;34;26;
48893;PMS5003;34710;35.798;139.446;2023-05-07T01:21:25;35;26;
48893;PMS5003;34710;35.798;139.446;2023-05-07T01:23:50;28;28;
48893;PMS5003;34710;35.798;139.446;2023-05-07T01:26:15;29;24;
48893;PMS5003;34710;35.798;139.446;2023-05-07T01:28:40;31;23;
48893;PMS5003;34710;35.798;139.446;2023-05-07T01:31:06;33;27;
48893;PMS5003;34710;35.798;139.446;2023-05-07T01:33:32;27;20;
48893;PMS5003;34710;35.798;139.446;2023-05-07T01:35:57;32;24;
48893;PMS5003;34710;35.798;139.446;2023-05-07T01:38:22;25;22;
48893;PMS5003;34710;35.798;139.446;2023-05-07T01:40:47;35;23;
48893;PMS5003;34710;35.798;139.446;2023-05-07T01:43:13;30;24;
48893;PMS5003;34710;35.798;139.446;2023-05-07T01:45:38;35;23;
48893;PMS5003;34710;35.798;139.446;2023-05-07T01:48:04;25;23;
48893;PMS5003;34710;35.798;139.446;2023-05-07T01:50:29;27;25;
48893;PMS5003;34710;35.798;139.446;2023-05-07T01:52:55;28;25;
48893;PMS5003;34710;35.798;139.446;2023-05-07T01:55:20;27;25;
48893;PMS5003;34710;35.798;139.446;2023-05-07T01:57:45;22;20;
48893;PMS5003;34710;35.798;139.446;2023-05-07T02:00:12;26;22;
48893;PMS5003;34710;35.798;139.446;2023-05-07T02:02:36;24;21;
48893;PMS5003;34710;35.798;139.446;2023-05-07T02:05:02;21;20;
48893;PMS5003;34710;35.798;139.446;2023-05-07T02:07:27;25;23;
48893;PMS5003;34710;35.798;139.446;2023-05-07T02:09:53;24;23;
48893;PMS5003;34710;35.798;139.446;2023-05-07T02:12:18;28;23;
48893;PMS5003;34710;35.798;139.446;2023-05-07T02:14:43;21;19;
48893;PMS5003;34710;35.798;139.446;2023-05-07T02:17:09;21;19;
48893;PMS5003;34710;35.798;139.446;2023-05-07T02:19:34;39;22;
48893;PMS5003;34710;35.798;139.446;2023-05-07T02:22:00;21;19;
48893;PMS5003;34710;35.798;139.446;2023-05-07T02:24:25;36;22;
48893;PMS5003;34710;35.798;139.446;2023-05-07T02:26:51;21;21;
48893;PMS5003;34710;35.798;139.446;2023-05-07T02:29:16;23;22;
48893;PMS5003;34710;35.798;139.446;2023-05-07T02:31:41;30;18;
48893;PMS5003;34710;35.798;139.446;2023-05-07T02:34:07;22;21;
48893;PMS5003;34710;35.798;139.446;2023-05-07T02:36:33;23;21;
48893;PMS5003;34710;35.798;139.446;2023-05-07T02:38:58;29;26;
48893;PMS5003;34710;35.798;139.446;2023-05-07T02:41:24;38;23;
48893;PMS5003;34710;35.798;139.446;2023-05-07T02:43:50;27;23;
48893;PMS5003;34710;35.798;139.446;2023-05-07T02:46:15;37;26;
48893;PMS5003;34710;35.798;139.446;2023-05-07T02:48:41;28;24;
48893;PMS5003;34710;35.798;139.446;2023-05-07T02:51:06;36;29;
48893;PMS5003;34710;35.798;139.446;2023-05-07T02:53:32;32;27;
48893;PMS5003;34710;35.798;139.446;2023-05-07T02:55:58;39;24;
48893;PMS5003;34710;35.798;139.446;2023-05-07T02:58:23;35;22;
48893;PMS5003;34710;35.798;139.446;2023-05-07T03:00:49;32;22;
48893;PMS5003;34710;35.798;139.446;2023-05-07T03:03:14;26;25;
48893;PMS5003;34710;35.798;139.446;2023-05-07T03:05:39;38;23;
48893;PMS5003;34710;35.798;139.446;2023-05-07T03:08:04;30;27;
48893;PMS5003;34710;35.798;139.446;2023-05-07T03:10:30;31;25;
48893;PMS5003;34710;35.798;139.446;2023-05-07T03:12:55;33;21;
48893;PMS5003;34710;35.798;139.446;2023-05-07T03:15:21;23;19;
48893;PMS5003;34710;35.798;139.446;2023-05-07T03:17:46;29;23;
48893;PMS5003;34710;35.798;139.446;2023-05-07T03:20:11;26;20;
48893;PMS5003;34710;35.798;139.446;2023-05-07T03:22:37;21;18;
48893;PMS5003;34710;35.798;139.446;2023-05-07T03:25:03;15;15;
48893;PMS5003;34710;35.798;139.446;2023-05-07T03:27:28;15;13;
48893;PMS5003;34710;35.798;139.446;2023-05-07T03:29:53;11;11;
48893;PMS5003;34710;35.798;139.446;2023-05-07T03:32:18;11;10;
48893;PMS5003;34710;35.798;139.446;2023-05-07T03:34:43;14;13;
48893;PMS5003;34710;35.798;139.446;2023-05-07T03:37:08;11;9;
48893;PMS5003;34710;35.798;139.446;2023-05-07T03:39:34;15;13;
48893;PMS5003;34710;35.798;139.446;2023-05-07T03:41:59;12;10;
48893;PMS5003;34710;35.798;139.446;2023-05-07T03:44:25;11;10;
48893;PMS5003;34710;35.798;139.446;2023-05-07T03:46:51;13;13;
48893;PMS5003;34710;35.798;139.446;2023-05-07T03:49:16;12;10;
48893;PMS5003;34710;35.798;139.446;2023-05-07T03:51:41;12;12;
48893;PMS5003;34710;35.798;139.446;2023-05-07T03:54:07;9;8;
48893;PMS5003;34710;35.798;139.446;2023-05-07T03:56:31;12;8;
48893;PMS5003;34710;35.798;139.446;2023-05-07T03:58:57;6;6;
48893;PMS5003;34710;35.798;139.446;2023-05-07T04:01:22;10;7;
48893;PMS5003;34710;35.798;139.446;2023-05-07T04:03:47;8;7;
48893;PMS5003;34710;35.798;139.446;2023-05-07T04:06:12;6;6;
48893;PMS5003;34710;35.798;139.446;2023-05-07T04:08:37;9;7;
48893;PMS5003;34710;35.798;139.446;2023-05-07T04:11:02;8;8;
48893;PMS5003;34710;35.798;139.446;2023-05-07T04:13:28;6;6;
48893;PMS5003;34710;35.798;139.446;2023-05-07T04:15:53;7;6;
48893;PMS5003;34710;35.798;139.446;2023-05-07T04:18:18;7;7;
48893;PMS5003;34710;35.798;139.446;2023-05-07T04:20:43;6;6;
48893;PMS5003;34710;35.798;139.446;2023-05-07T04:23:08;6;6;
48893;PMS5003;34710;35.798;139.446;2023-05-07T04:25:33;4;4;
48893;PMS5003;34710;35.798;139.446;2023-05-07T04:27:58;5;4;
48893;PMS5003;34710;35.798;139.446;2023-05-07T04:30:23;5;5;
48893;PMS5003;34710;35.798;139.446;2023-05-07T04:32:49;5;4;
48893;PMS5003;34710;35.798;139.446;2023-05-07T04:35:14;6;4;
48893;PMS5003;34710;35.798;139.446;2023-05-07T04:37:39;4;4;
48893;PMS5003;34710;35.798;139.446;2023-05-07T04:40:04;4;4;
48893;PMS5003;34710;35.798;139.446;2023-05-07T04:42:29;3;3;
48893;PMS5003;34710;35.798;139.446;2023-05-07T04:44:54;4;4;
48893;PMS5003;34710;35.798;139.446;2023-05-07T04:47:19;5;4;
48893;PMS5003;34710;35.798;139.446;2023-05-07T04:49:45;6;5;
48893;PMS5003;34710;35.798;139.446;2023-05-07T04:52:10;3;3;
48893;PMS5003;34710;35.798;139.446;2023-05-07T04:54:35;2;2;
48893;PMS5003;34710;35.798;139.446;2023-05-07T04:57:00;4;3;
48893;PMS5003;34710;35.798;139.446;2023-05-07T04:59:25;7;4;
48893;PMS5003;34710;35.798;139.446;2023-05-07T05:01:50;3;3;
48893;PMS5003;34710;35.798;139.446;2023-05-07T05:04:15;4;3;
48893;PMS5003;34710;35.798;139.446;2023-05-07T05:06:41;5;3;
48893;PMS5003;34710;35.798;139.446;2023-05-07T05:09:05;3;3;
48893;PMS5003;34710;35.798;139.446;2023-05-07T05:11:31;1;1;
48893;PMS5003;34710;35.798;139.446;2023-05-07T05:13:56;5;3;
48893;PMS5003;34710;35.798;139.446;2023-05-07T05:16:21;5;4;
48893;PMS5003;34710;35.798;139.446;2023-05-07T05:18:46;4;3;
48893;PMS5003;34710;35.798;139.446;2023-05-07T05:21:11;1;1;
48893;PMS5003;34710;35.798;139.446;2023-05-07T05:23:36;2;2;
48893;PMS5003;34710;35.798;139.446;2023-05-07T05:26:02;2;2;
48893;PMS5003;34710;35.798;139.446;2023-05-07T05:28:27;1;1;
48893;PMS5003;34710;35.798;139.446;2023-05-07T05:30:52;1;1;
48893;PMS5003;34710;35.798;139.446;2023-05-07T05:33:17;2;2;
48893;PMS5003;34710;35.798;139.446;2023-05-07T05:35:42;5;2;
48893;PMS5003;34710;35.798;139.446;2023-05-07T05:38:07;1;1;
48893;PMS5003;34710;35.798;139.446;2023-05-07T05:40:33;2;2;
48893;PMS5003;34710;35.798;139.446;2023-05-07T05:42:58;1;1;
48893;PMS5003;34710;35.798;139.446;2023-05-07T05:45:23;3;3;
48893;PMS5003;34710;35.798;139.446;2023-05-07T05:47:48;4;3;
48893;PMS5003;34710;35.798;139.446;2023-05-07T05:50:13;4;2;
48893;PMS5003;34710;35.798;139.446;2023-05-07T05:52:38;2;2;
48893;PMS5003;34710;35.798;139.446;2023-05-07T05:55:03;1;1;
48893;PMS5003;34710;35.798;139.446;2023-05-07T05:57:28;1;1;
48893;PMS5003;34710;35.798;139.446;2023-05-07T05:59:53;1;1;
48893;PMS5003;34710;35.798;139.446;2023-05-07T06:02:19;1;1;
48893;PMS5003;34710;35.798;139.446;2023-05-07T06:04:44;0;0;
48893;PMS5003;34710;35.798;139.446;2023-05-07T06:07:09;1;1;
48893;PMS5003;34710;35.798;139.446;2023-05-07T06:09:34;1;1;
48893;PMS5003;34710;35.798;139.446;2023-05-07T06:11:59;1;1;
48893;PMS5003;34710;35.798;139.446;2023-05-07T06:14:24;1;1;
48893;PMS5003;34710;35.798;139.446;2023-05-07T06:16:49;3;1;
48893;PMS5003;34710;35.798;139.446;2023-05-07T06:19:15;1;1;
48893;PMS5003;34710;35.798;139.446;2023-05-07T06:21:40;1;1;
48893;PMS5003;34710;35.798;139.446;2023-05-07T06:24:05;1;1;
48893;PMS5003;34710;35.798;139.446;2023-05-07T06:26:30;1;1;
48893;PMS5003;34710;35.798;139.446;2023-05-07T06:28:55;1;1;
48893;PMS5003;34710;35.798;139.446;2023-05-07T06:31:21;1;1;
48893;PMS5003;34710;35.798;139.446;2023-05-07T06:33:46;1;1;
48893;PMS5003;34710;35.798;139.446;2023-05-07T06:36:11;2;2;
48893;PMS5003;34710;35.798;139.446;2023-05-07T06:38:36;1;1;
48893;PMS5003;34710;35.798;139.446;2023-05-07T06:41:01;2;1;
48893;PMS5003;34710;35.798;139.446;2023-05-07T06:43:27;1;1;
48893;PMS5003;34710;35.798;139.446;2023-05-07T06:45:51;0;0;
48893;PMS5003;34710;35.798;139.446;2023-05-07T06:48:16;2;0;
48893;PMS5003;34710;35.798;139.446;2023-05-07T06:50:42;1;1;
48893;PMS5003;34710;35.798;139.446;2023-05-07T06:53:07;1;1;
48893;PMS5003;34710;35.798;139.446;2023-05-07T06:55:32;1;1;
48893;PMS5003;34710;35.798;139.446;2023-05-07T06:57:57;2;1;
48893;PMS5003;34710;35.798;139.446;2023-05-07T07:00:22;2;2;
48893;PMS5003;34710;35.798;139.446;2023-05-07T07:02:47;2;2;
48893;PMS5003;34710;35.798;139.446;2023-05-07T07:05:12;0;0;
48893;PMS5003;34710;35.798;139.446;2023-05-07T07:07:38;1;1;
48893;PMS5003;34710;35.798;139.446;2023-05-07T07:10:03;1;1;
48893;PMS5003;34710;35.798;139.446;2023-05-07T07:12:28;1;1;
48893;PMS5003;34710;35.798;139.446;2023-05-07T07:14:53;2;0;
48893;PMS5003;34710;35.798;139.446;2023-05-07T07:17:18;1;1;
48893;PMS5003;34710;35.798;139.446;2023-05-07T07:19:43;0;0;
48893;PMS5003;34710;35.798;139.446;2023-05-07T07:22:08;1;1;
48893;PMS5003;34710;35.798;139.446;2023-05-07T07:24:34;3;1;
48893;PMS5003;34710;35.798;139.446;2023-05-07T07:26:59;0;0;
48893;PMS5003;34710;35.798;139.446;2023-05-07T07:29:24;5;3;
48893;PMS5003;34710;35.798;139.446;2023-05-07T07:31:49;2;2;
48893;PMS5003;34710;35.798;139.446;2023-05-07T07:34:14;2;2;
48893;PMS5003;34710;35.798;139.446;2023-05-07T07:36:39;3;3;
48893;PMS5003;34710;35.798;139.446;2023-05-07T07:39:04;2;2;
48893;PMS5003;34710;35.798;139.446;2023-05-07T07:41:30;1;1;
48893;PMS5003;34710;35.798;139.446;2023-05-07T07:43:55;3;3;
48893;PMS5003;34710;35.798;139.446;2023-05-07T07:46:20;2;2;
48893;PMS5003;34710;35.798;139.446;2023-05-07T07:48:45;2;2;
48893;PMS5003;34710;35.798;139.446;2023-05-07T07:51:10;2;2;
48893;PMS5003;34710;35.798;139.446;2023-05-07T07:53:36;3;3;
48893;PMS5003;34710;35.798;139.446;2023-05-07T07:56:00;3;3;
48893;PMS5003;34710;35.798;139.446;2023-05-07T07:58:26;4;4;
48893;PMS5003;34710;35.798;139.446;2023-05-07T08:00:51;4;4;
48893;PMS5003;34710;35.798;139.446;2023-05-07T08:03:16;6;4;
48893;PMS5003;34710;35.798;139.446;2023-05-07T08:05:41;4;4;
48893;PMS5003;34710;35.798;139.446;2023-05-07T08:08:06;3;3;
48893;PMS5003;34710;35.798;139.446;2023-05-07T08:10:32;3;2;
48893;PMS5003;34710;35.798;139.446;2023-05-07T08:12:57;1;1;
48893;PMS5003;34710;35.798;139.446;2023-05-07T08:15:22;5;2;
48893;PMS5003;34710;35.798;139.446;2023-05-07T08:17:47;3;3;
48893;PMS5003;34710;35.798;139.446;2023-05-07T08:20:12;3;3;
48893;PMS5003;34710;35.798;139.446;2023-05-07T08:22:38;2;2;
48893;PMS5003;34710;35.798;139.446;2023-05-07T08:25:03;4;3;
48893;PMS5003;34710;35.798;139.446;2023-05-07T08:27:28;3;2;
48893;PMS5003;34710;35.798;139.446;2023-05-07T08:29:53;2;2;
48893;PMS5003;34710;35.798;139.446;2023-05-07T08:32:18;3;2;
48893;PMS5003;34710;35.798;139.446;2023-05-07T08:34:43;12;11;
48893;PMS5003;34710;35.798;139.446;2023-05-07T08:37:08;2;2;
48893;PMS5003;34710;35.798;139.446;2023-05-07T08:39:34;3;3;
48893;PMS5003;34710;35.798;139.446;2023-05-07T08:42:00;6;4;
48893;PMS5003;34710;35.798;139.446;2023-05-07T08:44:24;6;3;
48893;PMS5003;34710;35.798;139.446;2023-05-07T08:46:49;3;3;
48893;PMS5003;34710;35.798;139.446;2023-05-07T08:49:14;2;2;
48893;PMS5003;34710;35.798;139.446;2023-05-07T08:51:39;3;3;
48893;PMS5003;34710;35.798;139.446;2023-05-07T08:54:05;3;3;
48893;PMS5003;34710;35.798;139.446;2023-05-07T08:56:30;3;3;
48893;PMS5003;34710;35.798;139.446;2023-05-07T08:58:55;4;4;
48893;PMS5003;34710;35.798;139.446;2023-05-07T09:01:20;3;3;
48893;PMS5003;34710;35.798;139.446;2023-05-07T09:03:45;6;5;
48893;PMS5003;34710;35.798;139.446;2023-05-07T09:06:10;6;5;
48893;PMS5003;34710;35.798;139.446;2023-05-07T09:08:36;3;3;
48893;PMS5003;34710;35.798;139.446;2023-05-07T09:11:01;3;3;
48893;PMS5003;34710;35.798;139.446;2023-05-07T09:13:26;3;3;
48893;PMS5003;34710;35.798;139.446;2023-05-07T09:15:51;5;5;
48893;PMS5003;34710;35.798;139.446;2023-05-07T09:18:16;4;3;
48893;PMS5003;34710;35.798;139.446;2023-05-07T09:20:41;2;2;
48893;PMS5003;34710;35.798;139.446;2023-05-07T09:23:07;3;3;
48893;PMS5003;34710;35.798;139.446;2023-05-07T09:25:32;1;1;
48893;PMS5003;34710;35.798;139.446;2023-05-07T09:27:57;2;2;
48893;PMS5003;34710;35.798;139.446;2023-05-07T09:30:22;2;2;
48893;PMS5003;34710;35.798;139.446;2023-05-07T09:32:47;3;3;
48893;PMS5003;34710;35.798;139.446;2023-05-07T09:35:14;1;1;
48893;PMS5003;34710;35.798;139.446;2023-05-07T09:37:37;1;1;
48893;PMS5003;34710;35.798;139.446;2023-05-07T09:40:02;2;2;
48893;PMS5003;34710;35.798;139.446;2023-05-07T09:42:28;2;2;
48893;PMS5003;34710;35.798;139.446;2023-05-07T09:44:53;2;2;
48893;PMS5003;34710;35.798;139.446;2023-05-07T09:47:19;2;2;
48893;PMS5003;34710;35.798;139.446;2023-05-07T09:49:43;1;1;
48893;PMS5003;34710;35.798;139.446;2023-05-07T09:52:08;2;2;
48893;PMS5003;34710;35.798;139.446;2023-05-07T09:54:34;2;2;
48893;PMS5003;34710;35.798;139.446;2023-05-07T09:56:59;2;2;
48893;PMS5003;34710;35.798;139.446;2023-05-07T09:59:24;1;1;
48893;PMS5003;34710;35.798;139.446;2023-05-07T10:01:49;2;2;
48893;PMS5003;34710;35.798;139.446;2023-05-07T10:04:14;2;2;
48893;PMS5003;34710;35.798;139.446;2023-05-07T10:06:39;2;1;
48893;PMS5003;34710;35.798;139.446;2023-05-07T10:09:05;2;2;
48893;PMS5003;34710;35.798;139.446;2023-05-07T10:11:29;2;2;
48893;PMS5003;34710;35.798;139.446;2023-05-07T10:13:55;2;2;
48893;PMS5003;34710;35.798;139.446;2023-05-07T10:16:20;2;2;
48893;PMS5003;34710;35.798;139.446;2023-05-07T10:18:46;4;4;
48893;PMS5003;34710;35.798;139.446;2023-05-07T10:21:11;1;1;
48893;PMS5003;34710;35.798;139.446;2023-05-07T10:23:35;4;2;
48893;PMS5003;34710;35.798;139.446;2023-05-07T10:26:01;1;1;
48893;PMS5003;34710;35.798;139.446;2023-05-07T10:28:26;3;3;
48893;PMS5003;34710;35.798;139.446;2023-05-07T10:30:55;4;4;
48893;PMS5003;34710;35.798;139.446;2023-05-07T10:33:16;3;3;
48893;PMS5003;34710;35.798;139.446;2023-05-07T10:35:42;4;4;
48893;PMS5003;34710;35.798;139.446;2023-05-07T10:38:07;4;4;
48893;PMS5003;34710;35.798;139.446;2023-05-07T10:40:31;3;3;
48893;PMS5003;34710;35.798;139.446;2023-05-07T10:42:57;4;4;
48893;PMS5003;34710;35.798;139.446;2023-05-07T10:45:22;3;3;
48893;PMS5003;34710;35.798;139.446;2023-05-07T10:50:20;3;3;
48893;PMS5003;34710;35.798;139.446;2023-05-07T10:52:37;6;5;
48893;PMS5003;34710;35.798;139.446;2023-05-07T10:57:33;4;4;
48893;PMS5003;34710;35.798;139.446;2023-05-07T10:59:53;4;4;
48893;PMS5003;34710;35.798;139.446;2023-05-07T11:02:18;2;2;
48893;PMS5003;34710;35.798;139.446;2023-05-07T11:04:43;1;1;
48893;PMS5003;34710;35.798;139.446;2023-05-07T11:11:59;3;2;
48893;PMS5003;34710;35.798;139.446;2023-05-07T11:16:49;3;3;
48893;PMS5003;34710;35.798;139.446;2023-05-07T11:19:14;4;4;
48893;PMS5003;34710;35.798;139.446;2023-05-07T11:21:40;3;3;
48893;PMS5003;34710;35.798;139.446;2023-05-07T11:24:05;2;2;
48893;PMS5003;34710;35.798;139.446;2023-05-07T11:26:31;5;4;
48893;PMS5003;34710;35.798;139.446;2023-05-07T11:28:55;4;4;
48893;PMS5003;34710;35.798;139.446;2023-05-07T11:31:21;3;3;
48893;PMS5003;34710;35.798;139.446;2023-05-07T11:33:45;4;4;
48893;PMS5003;34710;35.798;139.446;2023-05-07T11:36:11;3;3;
48893;PMS5003;34710;35.798;139.446;2023-05-07T11:38:36;4;4;
48893;PMS5003;34710;35.798;139.446;2023-05-07T11:41:01;2;2;
48893;PMS5003;34710;35.798;139.446;2023-05-07T11:43:26;3;3;
48893;PMS5003;34710;35.798;139.446;2023-05-07T11:45:51;3;3;
48893;PMS5003;34710;35.798;139.446;2023-05-07T11:48:16;3;3;
48893;PMS5003;34710;35.798;139.446;2023-05-07T11:53:07;4;4;
48893;PMS5003;34710;35.798;139.446;2023-05-07T11:55:32;3;3;
48893;PMS5003;34710;35.798;139.446;2023-05-07T11:57:57;6;6;
48893;PMS5003;34710;35.798;139.446;2023-05-07T12:00:22;3;3;
48893;PMS5003;34710;35.798;139.446;2023-05-07T12:02:47;3;3;
48893;PMS5003;34710;35.798;139.446;2023-05-07T12:05:13;4;4;
48893;PMS5003;34710;35.798;139.446;2023-05-07T12:07:38;5;5;
48893;PMS5003;34710;35.798;139.446;2023-05-07T12:10:05;6;6;
48893;PMS5003;34710;35.798;139.446;2023-05-07T12:12:29;6;5;
48893;PMS5003;34710;35.798;139.446;2023-05-07T12:14:54;5;5;
48893;PMS5003;34710;35.798;139.446;2023-05-07T12:17:19;7;5;
48893;PMS5003;34710;35.798;139.446;2023-05-07T12:19:44;6;6;
48893;PMS5003;34710;35.798;139.446;2023-05-07T12:22:09;8;8;
48893;PMS5003;34710;35.798;139.446;2023-05-07T12:27:00;5;5;
48893;PMS5003;34710;35.798;139.446;2023-05-07T12:29:25;6;6;
48893;PMS5003;34710;35.798;139.446;2023-05-07T12:31:50;6;6;
48893;PMS5003;34710;35.798;139.446;2023-05-07T12:34:15;5;5;
48893;PMS5003;34710;35.798;139.446;2023-05-07T12:36:40;4;4;
48893;PMS5003;34710;35.798;139.446;2023-05-07T12:39:05;2;2;
48893;PMS5003;34710;35.798;139.446;2023-05-07T12:41:30;0;0;
48893;PMS5003;34710;35.798;139.446;2023-05-07T12:43:56;5;5;
48893;PMS5003;34710;35.798;139.446;2023-05-07T12:46:21;3;3;
48893;PMS5003;34710;35.798;139.446;2023-05-07T12:48:46;2;2;
48893;PMS5003;34710;35.798;139.446;2023-05-07T12:51:11;2;1;
48893;PMS5003;34710;35.798;139.446;2023-05-07T12:53:39;1;1;
48893;PMS5003;34710;35.798;139.446;2023-05-07T12:56:02;3;3;
48893;PMS5003;34710;35.798;139.446;2023-05-07T12:58:27;2;2;
48893;PMS5003;34710;35.798;139.446;2023-05-07T13:00:52;1;1;
48893;PMS5003;34710;35.798;139.446;2023-05-07T13:03:23;1;1;
48893;PMS5003;34710;35.798;139.446;2023-05-07T13:05:42;2;2;
48893;PMS5003;34710;35.798;139.446;2023-05-07T13:08:07;0;0;
48893;PMS5003;34710;35.798;139.446;2023-05-07T13:10:32;2;2;
48893;PMS5003;34710;35.798;139.446;2023-05-07T13:12:57;0;0;
48893;PMS5003;34710;35.798;139.446;2023-05-07T13:15:23;1;1;
48893;PMS5003;34710;35.798;139.446;2023-05-07T13:17:48;2;2;
48893;PMS5003;34710;35.798;139.446;2023-05-07T13:20:13;2;2;
48893;PMS5003;34710;35.798;139.446;2023-05-07T13:22:38;2;2;
48893;PMS5003;34710;35.798;139.446;2023-05-07T13:25:03;3;3;
48893;PMS5003;34710;35.798;139.446;2023-05-07T13:27:29;2;2;
48893;PMS5003;34710;35.798;139.446;2023-05-07T13:29:53;5;5;
48893;PMS5003;34710;35.798;139.446;2023-05-07T13:32:19;3;3;
48893;PMS5003;34710;35.798;139.446;2023-05-07T13:34:44;2;2;
48893;PMS5003;34710;35.798;139.446;2023-05-07T13:37:09;4;2;
48893;PMS5003;34710;35.798;139.446;2023-05-07T13:39:34;3;3;
48893;PMS5003;34710;35.798;139.446;2023-05-07T13:41:59;1;1;
48893;PMS5003;34710;35.798;139.446;2023-05-07T13:44:24;3;3;
48893;PMS5003;34710;35.798;139.446;2023-05-07T13:46:50;5;5;
48893;PMS5003;34710;35.798;139.446;2023-05-07T13:49:15;3;3;
48893;PMS5003;34710;35.798;139.446;2023-05-07T13:51:40;2;2;
48893;PMS5003;34710;35.798;139.446;2023-05-07T13:54:05;0;0;
48893;PMS5003;34710;35.798;139.446;2023-05-07T13:56:30;1;1;
48893;PMS5003;34710;35.798;139.446;2023-05-07T13:58:55;0;0;
48893;PMS5003;34710;35.798;139.446;2023-05-07T14:01:21;0;0;
48893;PMS5003;34710;35.798;139.446;2023-05-07T14:03:46;1;1;
48893;PMS5003;34710;35.798;139.446;2023-05-07T14:06:11;1;1;
48893;PMS5003;34710;35.798;139.446;2023-05-07T14:08:36;2;2;
48893;PMS5003;34710;35.798;139.446;2023-05-07T14:11:02;0;0;
48893;PMS5003;34710;35.798;139.446;2023-05-07T14:13:27;1;1;
48893;PMS5003;34710;35.798;139.446;2023-05-07T14:15:52;1;1;
48893;PMS5003;34710;35.798;139.446;2023-05-07T14:18:17;1;1;
48893;PMS5003;34710;35.798;139.446;2023-05-07T14:20:42;1;1;
48893;PMS5003;34710;35.798;139.446;2023-05-07T14:23:07;2;2;
48893;PMS5003;34710;35.798;139.446;2023-05-07T14:25:32;1;1;
48893;PMS5003;34710;35.798;139.446;2023-05-07T14:27:58;1;1;
48893;PMS5003;34710;35.798;139.446;2023-05-07T14:30:23;1;1;
48893;PMS5003;34710;35.798;139.446;2023-05-07T14:32:48;2;2;
48893;PMS5003;34710;35.798;139.446;2023-05-07T14:35:13;1;1;
48893;PMS5003;34710;35.798;139.446;2023-05-07T14:37:38;0;0;
48893;PMS5003;34710;35.798;139.446;2023-05-07T14:40:04;1;1;
48893;PMS5003;34710;35.798;139.446;2023-05-07T14:42:29;0;0;
48893;PMS5003;34710;35.798;139.446;2023-05-07T14:44:54;2;2;
48893;PMS5003;34710;35.798;139.446;2023-05-07T14:47:19;1;1;
48893;PMS5003;34710;35.798;139.446;2023-05-07T14:49:44;2;1;
48893;PMS5003;34710;35.798;139.446;2023-05-07T14:52:09;2;2;
48893;PMS5003;34710;35.798;139.446;2023-05-07T14:54:34;3;3;
48893;PMS5003;34710;35.798;139.446;2023-05-07T14:56:59;6;4;
48893;PMS5003;34710;35.798;139.446;2023-05-07T14:59:25;4;4;
48893;PMS5003;34710;35.798;139.446;2023-05-07T15:01:50;4;4;
48893;PMS5003;34710;35.798;139.446;2023-05-07T15:04:15;3;3;
48893;PMS5003;34710;35.798;139.446;2023-05-07T15:06:40;4;2;
48893;PMS5003;34710;35.798;139.446;2023-05-07T15:09:05;1;1;
48893;PMS5003;34710;35.798;139.446;2023-05-07T15:11:30;2;2;
48893;PMS5003;34710;35.798;139.446;2023-05-07T15:13:56;2;1;
48893;PMS5003;34710;35.798;139.446;2023-05-07T15:16:21;2;2;
48893;PMS5003;34710;35.798;139.446;2023-05-07T15:18:46;0;0;
48893;PMS5003;34710;35.798;139.446;2023-05-07T15:21:11;2;2;
48893;PMS5003;34710;35.798;139.446;2023-05-07T15:23:36;2;2;
48893;PMS5003;34710;35.798;139.446;2023-05-07T15:26:01;1;1;
48893;PMS5003;34710;35.798;139.446;2023-05-07T15:28:26;0;0;
48893;PMS5003;34710;35.798;139.446;2023-05-07T15:30:52;2;2;
48893;PMS5003;34710;35.798;139.446;2023-05-07T15:33:17;5;4;
48893;PMS5003;34710;35.798;139.446;2023-05-07T15:35:42;3;2;
48893;PMS5003;34710;35.798;139.446;2023-05-07T15:38:07;3;3;
48893;PMS5003;34710;35.798;139.446;2023-05-07T15:40:33;2;2;
48893;PMS5003;34710;35.798;139.446;2023-05-07T15:42:58;4;3;
48893;PMS5003;34710;35.798;139.446;2023-05-07T15:45:23;1;1;
48893;PMS5003;34710;35.798;139.446;2023-05-07T15:47:48;1;1;
48893;PMS5003;34710;35.798;139.446;2023-05-07T15:50:13;3;3;
48893;PMS5003;34710;35.798;139.446;2023-05-07T15:52:38;1;1;
48893;PMS5003;34710;35.798;139.446;2023-05-07T15:55:03;1;1;
48893;PMS5003;34710;35.798;139.446;2023-05-07T15:57:28;2;2;
48893;PMS5003;34710;35.798;139.446;2023-05-07T15:59:53;3;2;
48893;PMS5003;34710;35.798;139.446;2023-05-07T16:02:19;4;3;
48893;PMS5003;34710;35.798;139.446;2023-05-07T16:04:44;3;3;
48893;PMS5003;34710;35.798;139.446;2023-05-07T16:07:09;1;1;
48893;PMS5003;34710;35.798;139.446;2023-05-07T16:09:34;3;3;
48893;PMS5003;34710;35.798;139.446;2023-05-07T16:12:00;3;3;